Time;durP1;ratioP1;P1;durP2;ratioP2;P2;SDS_P1;SDS_P2;PMS_P1;PMS_P2;Temp;Humidity;BMP_temperature;BMP_pressure;BME280_temperature;BME280_humidity;BME280_pressure;Samples;Min_cycle;Max_cycle;Signal;HPM_P1;HPM_P2
2024/04/13 00:02:15;;;;;;;1.13;1.13;;;18.10;65.00;;;;;;5418262;26;20228;-68
2024/04/13 00:04:41;;;;;;;1.67;1.58;;;18.10;64.10;;;;;;5417760;26;20262;-67
2024/04/13 00:07:06;;;;;;;1.17;1.17;;;18.10;64.10;;;;;;5417157;26;20271;-67
2024/04/13 00:09:32;;;;;;;2.10;1.65;;;18.10;64.10;;;;;;5418223;26;20225;-67
2024/04/13 00:11:57;;;;;;;2.45;1.23;;;18.10;64.10;;;;;;5417504;26;20224;-67
2024/04/13 00:14:23;;;;;;;1.85;1.45;;;18.10;64.10;;;;;;5417208;26;20221;-68
2024/04/13 00:16:48;;;;;;;1.25;1.15;;;18.10;64.20;;;;;;5417327;26;20233;-69
2024/04/13 00:19:15;;;;;;;1.63;1.52;;;18.10;64.10;;;;;;5417360;26;20224;-68
2024/04/13 00:21:41;;;;;;;1.50;1.40;;;18.10;65.00;;;;;;5417633;26;20287;-68
2024/04/13 00:24:07;;;;;;;1.33;1.23;;;18.10;64.10;;;;;;5418058;26;20313;-67
2024/04/13 00:26:34;;;;;;;1.35;1.30;;;18.00;64.00;;;;;;5417089;26;20288;-67
2024/04/13 00:29:00;;;;;;;1.25;1.17;;;18.00;64.00;;;;;;5417438;26;20267;-67
2024/04/13 00:31:25;;;;;;;2.95;1.52;;;18.00;64.10;;;;;;5417987;26;20582;-67
2024/04/13 00:33:51;;;;;;;1.30;1.20;;;18.10;64.10;;;;;;5416514;26;20706;-68
2024/04/13 00:36:18;;;;;;;1.27;1.15;;;18.00;64.00;;;;;;5417691;26;20338;-68
2024/04/13 00:38:43;;;;;;;1.23;1.20;;;18.00;64.00;;;;;;5417279;26;20220;-69
2024/04/13 00:41:09;;;;;;;1.40;1.30;;;18.00;64.00;;;;;;5416825;26;20259;-68
2024/04/13 00:43:34;;;;;;;1.75;1.60;;;18.00;64.00;;;;;;5416681;26;20217;-67
2024/04/13 00:46:07;;;;;;;1.52;1.42;;;18.00;64.00;;;;;;5417216;26;20232;-68
2024/04/13 00:48:33;;;;;;;1.60;1.50;;;18.00;64.00;;;;;;5387492;26;20216;-68
2024/04/13 00:51:00;;;;;;;1.65;1.42;;;18.00;64.00;;;;;;5417022;26;20220;-68
2024/04/13 00:53:26;;;;;;;1.30;1.20;;;18.00;64.90;;;;;;5417528;26;20570;-67
2024/04/13 00:55:53;;;;;;;1.65;1.55;;;18.00;64.00;;;;;;5416331;26;20255;-67
2024/04/13 00:58:25;;;;;;;1.33;1.20;;;18.00;64.00;;;;;;5386451;26;20228;-67
2024/04/13 01:00:51;;;;;;;1.60;1.50;;;18.00;64.00;;;;;;5387683;26;20256;-67
2024/04/13 01:03:17;;;;;;;1.38;1.30;;;18.00;64.00;;;;;;5416463;26;20757;-67
2024/04/13 01:05:43;;;;;;;1.50;1.40;;;18.00;64.00;;;;;;5416984;26;20232;-67
2024/04/13 01:08:09;;;;;;;1.40;1.30;;;18.00;64.00;;;;;;5417344;26;20284;-67
2024/04/13 01:10:34;;;;;;;1.23;1.15;;;18.00;64.00;;;;;;5416312;26;20224;-68
2024/04/13 01:13:00;;;;;;;1.15;1.13;;;18.00;64.00;;;;;;5385478;26;20252;-67
2024/04/13 01:15:27;;;;;;;1.85;1.58;;;18.00;64.00;;;;;;5386154;26;20260;-68
2024/04/13 01:17:53;;;;;;;1.30;1.20;;;18.00;64.00;;;;;;5416007;26;20747;-68
2024/04/13 01:20:19;;;;;;;1.60;1.50;;;18.00;64.00;;;;;;5417250;26;20224;-68
2024/04/13 01:22:45;;;;;;;1.67;1.58;;;18.00;64.10;;;;;;5415848;26;20228;-67
2024/04/13 01:25:14;;;;;;;1.50;1.40;;;18.00;64.00;;;;;;5417143;26;20225;-67
2024/04/13 01:27:40;;;;;;;1.40;1.30;;;18.00;64.90;;;;;;5416789;26;20220;-67
2024/04/13 01:30:11;;;;;;;1.63;1.52;;;18.00;64.00;;;;;;5416161;26;20224;-68
2024/04/13 01:32:37;;;;;;;1.45;1.35;;;18.00;64.00;;;;;;5417090;26;20220;-68
2024/04/13 01:35:13;;;;;;;1.75;1.50;;;18.00;64.10;;;;;;5416513;26;20583;-68
2024/04/13 01:37:39;;;;;;;1.33;1.23;;;18.00;64.00;;;;;;5416059;26;20623;-68
2024/04/13 01:40:06;;;;;;;1.60;1.50;;;18.00;64.90;;;;;;5416583;26;20671;-68
2024/04/13 01:42:32;;;;;;;1.48;1.38;;;18.00;64.00;;;;;;5416901;26;20328;-67
2024/04/13 01:44:58;;;;;;;1.60;1.50;;;18.00;64.00;;;;;;5415587;26;21203;-67
2024/04/13 01:47:24;;;;;;;1.20;1.10;;;18.00;64.00;;;;;;5416783;26;20217;-68
2024/04/13 01:49:49;;;;;;;1.25;1.20;;;18.00;64.00;;;;;;5416387;26;20255;-68
2024/04/13 01:52:15;;;;;;;1.42;1.20;;;18.00;64.00;;;;;;5415887;26;20258;-67
2024/04/13 01:54:41;;;;;;;1.70;1.55;;;18.00;64.00;;;;;;5416254;26;20259;-67
2024/04/13 01:57:06;;;;;;;1.45;1.35;;;18.00;64.00;;;;;;5416644;26;20224;-67
2024/04/13 01:59:32;;;;;;;1.60;1.50;;;18.00;64.00;;;;;;5415772;26;20221;-67
2024/04/13 02:01:57;;;;;;;1.33;1.20;;;18.00;64.10;;;;;;5416272;26;20220;-67
2024/04/13 02:04:23;;;;;;;1.50;1.40;;;18.00;64.00;;;;;;5416791;26;20221;-67
2024/04/13 02:06:48;;;;;;;1.30;1.20;;;18.00;64.00;;;;;;5415231;26;20216;-67
2024/04/13 02:09:14;;;;;;;1.33;1.30;;;18.00;64.00;;;;;;5416414;26;20569;-67
2024/04/13 02:11:40;;;;;;;1.15;1.08;;;18.00;64.00;;;;;;5416183;26;20678;-67
2024/04/13 02:14:05;;;;;;;1.20;1.20;;;18.00;64.00;;;;;;5415515;26;20220;-67
2024/04/13 02:16:31;;;;;;;1.50;1.40;;;18.00;64.10;;;;;;5416083;26;20714;-68
2024/04/13 02:18:56;;;;;;;1.33;1.23;;;18.00;64.00;;;;;;5414965;26;20224;-67
2024/04/13 02:21:24;;;;;;;1.40;1.30;;;18.00;64.10;;;;;;5416252;26;20263;-67
2024/04/13 02:23:50;;;;;;;1.52;1.40;;;18.00;64.00;;;;;;5415864;26;20224;-67
2024/04/13 02:26:15;;;;;;;1.40;1.30;;;18.00;64.00;;;;;;5415410;26;20317;-66
2024/04/13 02:28:41;;;;;;;1.10;1.10;;;18.00;64.00;;;;;;5415710;26;20225;-67
2024/04/13 02:31:06;;;;;;;1.83;1.50;;;18.00;64.00;;;;;;5416097;26;20560;-67
2024/04/13 02:33:32;;;;;;;1.13;1.13;;;18.00;64.00;;;;;;5415275;26;20679;-67
2024/04/13 02:36:02;;;;;;;1.20;1.10;;;18.00;64.00;;;;;;5415629;26;20615;-69
2024/04/13 02:38:28;;;;;;;1.73;1.35;;;18.00;64.00;;;;;;5415903;26;20687;-68
2024/04/13 02:40:57;;;;;;;1.30;1.23;;;18.00;64.00;;;;;;5414739;26;20225;-68
2024/04/13 02:43:23;;;;;;;1.20;1.10;;;18.00;64.00;;;;;;5415874;26;20290;-67
2024/04/13 02:45:49;;;;;;;1.40;1.30;;;18.00;64.00;;;;;;5415505;26;20224;-67
2024/04/13 02:48:14;;;;;;;1.40;1.30;;;18.00;64.00;;;;;;5415035;26;20262;-67
2024/04/13 02:50:40;;;;;;;1.23;1.13;;;18.00;64.00;;;;;;5415405;26;20221;-68
2024/04/13 02:53:06;;;;;;;2.10;1.42;;;17.90;64.00;;;;;;5415768;26;20267;-68
2024/04/13 02:55:31;;;;;;;1.73;1.40;;;18.00;64.00;;;;;;5414862;26;20254;-67
2024/04/13 02:57:57;;;;;;;1.50;1.40;;;18.00;64.00;;;;;;5415148;26;20561;-67
2024/04/13 03:00:23;;;;;;;1.02;1.02;;;18.00;64.00;;;;;;5415324;26;20687;-67
2024/04/13 03:02:48;;;;;;;2.40;1.55;;;17.90;64.00;;;;;;5414274;26;20294;-67
2024/04/13 03:05:15;;;;;;;1.40;1.30;;;18.00;64.10;;;;;;5415487;26;20220;-67
2024/04/13 03:07:40;;;;;;;1.40;1.30;;;18.00;64.30;;;;;;5417684;26;20221;-67
2024/04/13 03:10:06;;;;;;;1.27;1.15;;;18.00;64.00;;;;;;5418224;26;20256;-69
2024/04/13 03:12:32;;;;;;;1.50;1.40;;;17.90;64.00;;;;;;5418999;26;20216;-68
2024/04/13 03:14:58;;;;;;;2.33;1.17;;;17.90;64.00;;;;;;5418581;26;20230;-68
2024/04/13 03:17:24;;;;;;;1.30;1.20;;;17.90;64.00;;;;;;5417989;26;20233;-69
2024/04/13 03:19:51;;;;;;;1.20;1.10;;;17.90;64.00;;;;;;5418538;26;20754;-68
2024/04/13 03:22:18;;;;;;;1.55;1.40;;;17.90;64.00;;;;;;5418058;26;20228;-67
2024/04/13 03:24:44;;;;;;;1.23;1.13;;;17.90;64.00;;;;;;5418318;26;20263;-67
2024/04/13 03:27:09;;;;;;;1.73;1.25;;;17.90;64.00;;;;;;5418834;26;20216;-67
2024/04/13 03:29:35;;;;;;;1.40;1.30;;;17.90;64.00;;;;;;5417816;26;20217;-67
2024/04/13 03:32:01;;;;;;;1.58;1.48;;;17.90;64.00;;;;;;5418297;26;20216;-68
2024/04/13 03:34:27;;;;;;;1.50;1.40;;;17.90;64.00;;;;;;5418623;26;20221;-68
2024/04/13 03:36:53;;;;;;;1.40;1.23;;;17.90;64.00;;;;;;5417361;26;20313;-69
2024/04/13 03:39:21;;;;;;;1.48;1.10;;;17.90;64.00;;;;;;5418561;26;20750;-67
2024/04/13 03:41:47;;;;;;;1.13;1.13;;;17.90;64.00;;;;;;5418244;26;20276;-68
2024/04/13 03:44:12;;;;;;;1.63;1.52;;;17.90;64.00;;;;;;5417695;26;20217;-67
2024/04/13 03:46:38;;;;;;;1.38;1.27;;;17.90;64.00;;;;;;5418531;26;20254;-68
2024/04/13 03:49:03;;;;;;;1.40;1.30;;;17.90;64.00;;;;;;5418049;26;20217;-68
2024/04/13 03:51:29;;;;;;;1.40;1.30;;;17.90;64.00;;;;;;5417602;26;20262;-68
2024/04/13 03:53:54;;;;;;;1.17;1.08;;;17.90;64.00;;;;;;5417857;26;20256;-68
2024/04/13 03:56:20;;;;;;;1.60;1.50;;;17.90;64.00;;;;;;5418300;26;20225;-68
2024/04/13 03:58:47;;;;;;;1.85;1.70;;;17.90;64.00;;;;;;5417104;26;20312;-67
2024/04/13 04:01:12;;;;;;;1.42;1.30;;;17.90;64.00;;;;;;5418281;26;20258;-67
2024/04/13 04:03:38;;;;;;;1.40;1.30;;;17.90;64.00;;;;;;5418199;26;20268;-67
2024/04/13 04:06:05;;;;;;;1.50;1.40;;;17.90;64.00;;;;;;5417030;26;20255;-68
2024/04/13 04:08:31;;;;;;;1.30;1.20;;;17.90;64.00;;;;;;5418204;26;20263;-68
2024/04/13 04:10:56;;;;;;;1.60;1.20;;;17.90;64.00;;;;;;5417861;26;20370;-68
2024/04/13 04:13:23;;;;;;;1.42;1.33;;;17.90;64.00;;;;;;5417244;26;20256;-68
2024/04/13 04:15:49;;;;;;;1.45;1.35;;;17.90;64.00;;;;;;5417552;26;20237;-67
2024/04/13 04:18:15;;;;;;;1.38;1.27;;;17.90;64.00;;;;;;5416781;26;20703;-69
2024/04/13 04:20:41;;;;;;;1.50;1.40;;;17.90;64.00;;;;;;5416813;26;20224;-68
2024/04/13 04:23:06;;;;;;;1.60;1.50;;;17.90;64.00;;;;;;5417992;26;20225;-67
2024/04/13 04:25:32;;;;;;;1.48;1.20;;;17.90;64.00;;;;;;5417084;26;20225;-67
2024/04/13 04:27:57;;;;;;;1.42;1.33;;;17.90;64.00;;;;;;5417522;26;20280;-67
2024/04/13 04:30:23;;;;;;;1.30;1.20;;;17.90;64.00;;;;;;5417954;26;20297;-68
2024/04/13 04:32:48;;;;;;;1.38;1.27;;;17.90;64.00;;;;;;5416521;26;20660;-68
2024/04/13 04:35:14;;;;;;;1.50;1.40;;;17.90;64.00;;;;;;5417800;26;20560;-68
2024/04/13 04:37:40;;;;;;;1.33;1.23;;;17.90;64.00;;;;;;5417338;26;20777;-68
2024/04/13 04:40:09;;;;;;;1.55;1.45;;;17.80;63.90;;;;;;5416909;26;20682;-68
2024/04/13 04:42:35;;;;;;;1.83;1.38;;;17.90;64.00;;;;;;5417758;26;20221;-68
2024/04/13 04:45:01;;;;;;;1.63;1.52;;;17.90;64.00;;;;;;5417285;26;20266;-67
2024/04/13 04:47:27;;;;;;;1.40;1.30;;;17.90;64.00;;;;;;5417029;26;20217;-68
2024/04/13 04:49:52;;;;;;;1.83;1.58;;;17.80;63.90;;;;;;5417296;26;20663;-68
2024/04/13 04:52:18;;;;;;;1.40;1.20;;;17.90;64.00;;;;;;5417457;26;20686;-68
2024/04/13 04:54:44;;;;;;;1.13;1.10;;;17.80;64.70;;;;;;5416305;26;20220;-68
2024/04/13 04:57:10;;;;;;;1.30;1.20;;;17.80;64.70;;;;;;5417383;26;20221;-67
2024/04/13 04:59:35;;;;;;;1.42;1.30;;;17.80;63.90;;;;;;5417388;26;20263;-67
2024/04/13 05:02:01;;;;;;;1.30;1.20;;;17.90;64.00;;;;;;5416182;26;20259;-67
2024/04/13 05:04:29;;;;;;;1.27;1.20;;;17.80;63.90;;;;;;5417390;26;20310;-67
2024/04/13 05:06:54;;;;;;;1.27;1.17;;;17.90;64.00;;;;;;5416764;26;20321;-67
2024/04/13 05:09:20;;;;;;;1.25;1.15;;;17.90;64.00;;;;;;5416627;26;20232;-67
2024/04/13 05:11:45;;;;;;;1.50;1.40;;;17.90;63.90;;;;;;5416805;26;20321;-67
2024/04/13 05:14:16;;;;;;;1.38;1.27;;;17.90;64.00;;;;;;5417225;26;20271;-68
2024/04/13 05:16:41;;;;;;;1.63;1.25;;;17.90;63.90;;;;;;5415930;26;20236;-68
2024/04/13 05:19:07;;;;;;;1.50;1.40;;;17.90;63.90;;;;;;5417286;26;20262;-68
2024/04/13 05:21:32;;;;;;;1.20;1.10;;;17.90;63.90;;;;;;5417100;26;20224;-67
2024/04/13 05:23:58;;;;;;;1.30;1.20;;;17.80;63.80;;;;;;5415904;26;20680;-67
2024/04/13 05:26:24;;;;;;;3.35;1.38;;;17.90;63.90;;;;;;5417060;26;20220;-67
2024/04/13 05:28:50;;;;;;;1.42;1.33;;;17.90;63.90;;;;;;5415545;26;20305;-67
2024/04/13 05:31:16;;;;;;;1.45;1.35;;;17.90;63.80;;;;;;5416988;26;20224;-67
2024/04/13 05:33:44;;;;;;;2.00;1.50;;;17.90;63.80;;;;;;5416604;26;20255;-67
2024/04/13 05:36:09;;;;;;;2.33;1.52;;;17.90;63.80;;;;;;5415988;26;20581;-68
2024/04/13 05:38:35;;;;;;;1.30;1.20;;;17.90;63.80;;;;;;5417048;26;20248;-68
2024/04/13 05:41:00;;;;;;;1.40;1.30;;;17.90;63.80;;;;;;5416476;26;20221;-67
2024/04/13 05:43:26;;;;;;;1.35;1.25;;;17.90;63.80;;;;;;5416043;26;20595;-68
2024/04/13 05:45:51;;;;;;;1.20;1.20;;;17.90;63.80;;;;;;5416381;26;20221;-67
2024/04/13 05:48:19;;;;;;;1.27;1.17;;;17.90;63.80;;;;;;5416804;26;20220;-67
2024/04/13 05:50:54;;;;;;;1.58;1.40;;;17.90;63.70;;;;;;5415521;26;20224;-68
2024/04/13 05:53:19;;;;;;;1.50;1.40;;;17.90;63.80;;;;;;5416814;26;20220;-67
2024/04/13 05:55:45;;;;;;;1.30;1.20;;;17.90;63.70;;;;;;5416218;26;20255;-67
2024/04/13 05:58:11;;;;;;;1.42;1.33;;;17.90;63.70;;;;;;5415747;26;20637;-67
2024/04/13 06:00:36;;;;;;;1.65;1.50;;;17.90;63.70;;;;;;5416533;26;20324;-67
2024/04/13 06:03:02;;;;;;;1.55;1.45;;;17.90;63.70;;;;;;5416173;26;20322;-67
2024/04/13 06:05:28;;;;;;;1.70;1.50;;;17.90;63.70;;;;;;5415772;26;20322;-67
2024/04/13 06:07:54;;;;;;;1.75;1.48;;;18.00;63.70;;;;;;5416065;26;20317;-67
2024/04/13 06:10:19;;;;;;;2.30;1.50;;;17.90;63.70;;;;;;5416485;26;20228;-67
2024/04/13 06:12:46;;;;;;;1.35;1.25;;;17.90;64.50;;;;;;5415136;26;20259;-67
2024/04/13 06:15:11;;;;;;;1.77;1.60;;;17.90;63.60;;;;;;5416457;26;20217;-68
2024/04/13 06:17:37;;;;;;;1.55;1.42;;;17.90;63.60;;;;;;5416076;26;20229;-68
2024/04/13 06:20:03;;;;;;;1.30;1.20;;;17.90;63.60;;;;;;5414985;26;20220;-68
2024/04/13 06:22:28;;;;;;;1.42;1.33;;;17.90;63.60;;;;;;5416244;26;20609;-67
2024/04/13 06:24:54;;;;;;;1.40;1.15;;;17.90;63.60;;;;;;5415762;26;20220;-67
2024/04/13 06:27:20;;;;;;;1.15;1.13;;;18.00;63.60;;;;;;5415274;26;20262;-67
2024/04/13 06:29:49;;;;;;;1.50;1.40;;;18.00;63.60;;;;;;5415734;26;20220;-67
2024/04/13 06:32:16;;;;;;;1.50;1.40;;;18.00;63.60;;;;;;5415216;26;20296;-68
2024/04/13 06:34:41;;;;;;;1.60;1.50;;;18.00;63.50;;;;;;5415674;26;20788;-68
2024/04/13 06:37:07;;;;;;;2.13;1.40;;;18.00;63.50;;;;;;5415884;26;20225;-68
2024/04/13 06:39:32;;;;;;;1.67;1.20;;;18.00;63.50;;;;;;5415071;26;20224;-68
2024/04/13 06:41:58;;;;;;;1.60;1.50;;;18.00;63.50;;;;;;5414365;26;20247;-68
2024/04/13 06:44:23;;;;;;;1.45;1.30;;;18.00;63.50;;;;;;5415954;26;20544;-68
2024/04/13 06:46:51;;;;;;;1.20;1.20;;;18.00;63.40;;;;;;5414733;26;21047;-68
2024/04/13 06:49:17;;;;;;;1.83;1.73;;;18.00;64.20;;;;;;5415790;26;20228;-68
2024/04/13 06:51:43;;;;;;;1.52;1.42;;;18.10;64.20;;;;;;5415374;26;20618;-68
2024/04/13 06:54:08;;;;;;;1.50;1.40;;;18.10;63.40;;;;;;5414879;26;20221;-67
2024/04/13 06:56:34;;;;;;;1.40;1.30;;;18.10;63.40;;;;;;5415423;26;20697;-67
2024/04/13 06:58:59;;;;;;;1.80;1.70;;;18.10;63.30;;;;;;5414845;26;20220;-67
2024/04/13 07:01:28;;;;;;;1.80;1.48;;;18.10;64.20;;;;;;5414366;26;20255;-67
2024/04/13 07:03:56;;;;;;;1.20;1.10;;;18.10;63.30;;;;;;5414739;26;20272;-67
2024/04/13 07:06:22;;;;;;;2.10;1.40;;;18.10;63.30;;;;;;5415208;26;20224;-67
2024/04/13 07:08:48;;;;;;;2.13;1.48;;;18.10;63.40;;;;;;5413938;26;20259;-67
2024/04/13 07:11:14;;;;;;;1.50;1.40;;;18.10;63.30;;;;;;5415071;26;20221;-67
2024/04/13 07:13:40;;;;;;;1.70;1.42;;;18.10;63.40;;;;;;5414831;26;20321;-68
2024/04/13 07:16:06;;;;;;;1.95;1.65;;;18.10;63.30;;;;;;5414131;26;20780;-68
2024/04/13 07:18:32;;;;;;;1.75;1.48;;;18.20;63.30;;;;;;5414949;26;20220;-68
2024/04/13 07:20:58;;;;;;;1.90;1.80;;;18.20;63.30;;;;;;5414603;26;20320;-68
2024/04/13 07:23:23;;;;;;;1.65;1.55;;;18.20;63.30;;;;;;5414040;26;20221;-67
2024/04/13 07:25:57;;;;;;;1.35;1.30;;;18.20;63.30;;;;;;5414573;26;20232;-67
2024/04/13 07:28:22;;;;;;;1.50;1.40;;;18.10;63.50;;;;;;5413995;26;20284;-67
2024/04/13 07:30:48;;;;;;;1.40;1.30;;;18.10;63.30;;;;;;5414371;26;20579;-68
2024/04/13 07:33:13;;;;;;;1.55;1.45;;;18.20;63.40;;;;;;5414879;26;20225;-68
2024/04/13 07:35:39;;;;;;;1.52;1.42;;;18.20;63.40;;;;;;5413881;26;20221;-68
2024/04/13 07:38:04;;;;;;;1.60;1.50;;;18.20;63.30;;;;;;5414379;26;20251;-69
2024/04/13 07:40:30;;;;;;;1.33;1.23;;;18.30;63.30;;;;;;5414737;26;20220;-68
2024/04/13 07:42:55;;;;;;;1.80;1.35;;;18.30;63.30;;;;;;5413247;26;20658;-69
2024/04/13 07:45:21;;;;;;;1.67;1.58;;;18.30;63.20;;;;;;5414477;26;20709;-68
2024/04/13 07:47:46;;;;;;;1.63;1.52;;;18.30;63.20;;;;;;5414003;26;20232;-68
2024/04/13 07:50:12;;;;;;;2.50;1.60;;;18.30;63.20;;;;;;5413542;26;20698;-69
2024/04/13 07:52:38;;;;;;;1.77;1.55;;;18.30;63.20;;;;;;5415637;26;20259;-68
2024/04/13 07:55:03;;;;;;;1.50;1.27;;;18.30;63.30;;;;;;5417761;26;20232;-68
2024/04/13 07:57:29;;;;;;;3.28;1.83;;;18.30;63.30;;;;;;5417296;26;20224;-67
2024/04/13 07:59:54;;;;;;;1.63;1.42;;;18.30;63.30;;;;;;5417725;26;20545;-67
2024/04/13 08:02:20;;;;;;;1.55;1.42;;;18.40;63.30;;;;;;5418264;26;20752;-67
2024/04/13 08:04:45;;;;;;;1.60;1.50;;;18.40;63.30;;;;;;5416966;26;20267;-67
2024/04/13 08:07:11;;;;;;;1.63;1.50;;;18.40;63.30;;;;;;5418194;26;20216;-68
2024/04/13 08:09:40;;;;;;;1.60;1.50;;;18.40;63.20;;;;;;5418178;26;20216;-68
2024/04/13 08:12:06;;;;;;;1.63;1.52;;;18.40;63.20;;;;;;5417401;26;20256;-68
2024/04/13 08:14:32;;;;;;;1.80;1.67;;;18.50;63.20;;;;;;5417883;26;20221;-69
2024/04/13 08:16:57;;;;;;;2.05;1.77;;;18.50;63.10;;;;;;5417532;26;20296;-69
2024/04/13 08:19:23;;;;;;;1.77;1.67;;;18.50;63.10;;;;;;5417197;26;20261;-68
2024/04/13 08:21:48;;;;;;;1.70;1.60;;;18.50;63.10;;;;;;5417570;26;20322;-68
2024/04/13 08:24:14;;;;;;;3.80;1.60;;;18.50;63.20;;;;;;5418066;26;20385;-67
2024/04/13 08:26:40;;;;;;;1.95;1.60;;;18.50;63.10;;;;;;5416747;26;20284;-68
2024/04/13 08:29:06;;;;;;;1.50;1.40;;;18.50;63.20;;;;;;5417884;26;20326;-67
2024/04/13 08:31:31;;;;;;;1.90;1.80;;;18.50;63.10;;;;;;5417771;26;20691;-68
2024/04/13 08:33:57;;;;;;;1.63;1.52;;;18.50;63.10;;;;;;5416898;26;20221;-68
2024/04/13 08:36:22;;;;;;;2.15;1.63;;;18.60;63.10;;;;;;5417663;26;20224;-68
2024/04/13 08:38:48;;;;;;;1.52;1.42;;;18.60;63.10;;;;;;5416530;26;20691;-68
2024/04/13 08:41:26;;;;;;;1.50;1.40;;;18.60;63.10;;;;;;5417593;26;20221;-67
2024/04/13 08:43:51;;;;;;;1.80;1.70;;;18.60;63.10;;;;;;5387621;26;20220;-67
2024/04/13 08:46:17;;;;;;;1.65;1.55;;;18.60;63.10;;;;;;5416661;26;20224;-68
2024/04/13 08:48:42;;;;;;;1.60;1.50;;;18.60;63.00;;;;;;5356823;26;20225;-68
2024/04/13 08:51:09;;;;;;;3.33;2.10;;;18.60;63.00;;;;;;5417607;26;20262;-69
2024/04/13 08:53:34;;;;;;;1.63;1.40;;;18.70;63.00;;;;;;5356911;26;20325;-68
2024/04/13 08:56:01;;;;;;;1.30;1.25;;;18.70;62.90;;;;;;5385876;26;21167;-67
2024/04/13 08:58:26;;;;;;;1.98;1.67;;;18.70;62.90;;;;;;5385919;26;20577;-67
2024/04/13 09:00:52;;;;;;;1.88;1.63;;;18.70;62.90;;;;;;5355854;26;20266;-67
2024/04/13 09:03:19;;;;;;;2.00;1.52;;;18.80;62.90;;;;;;5417540;26;20259;-68
2024/04/13 09:05:44;;;;;;;2.05;1.88;;;18.80;62.90;;;;;;5416011;26;20220;-67
2024/04/13 09:08:11;;;;;;;1.90;1.77;;;18.80;62.90;;;;;;5416578;26;20259;-67
2024/04/13 09:10:38;;;;;;;1.90;1.70;;;18.80;62.90;;;;;;5357323;26;20263;-67
2024/04/13 09:13:03;;;;;;;1.73;1.55;;;18.80;62.90;;;;;;5416882;26;20259;-68
2024/04/13 09:15:29;;;;;;;1.50;1.40;;;18.80;62.90;;;;;;5385204;26;20224;-69
2024/04/13 09:17:55;;;;;;;1.60;1.50;;;18.80;62.90;;;;;;5450854;26;20223;-68
2024/04/13 09:20:20;;;;;;;3.35;1.90;;;18.80;62.90;;;;;;5421797;26;20271;-69
2024/04/13 09:22:46;;;;;;;1.88;1.60;;;18.80;62.90;;;;;;5420258;26;20533;-68
2024/04/13 09:25:21;;;;;;;2.42;1.70;;;18.80;62.90;;;;;;5451297;26;20223;-67
2024/04/13 09:28:00;;;;;;;1.77;1.67;;;18.90;63.00;;;;;;5452738;26;20269;-67
2024/04/13 09:30:26;;;;;;;1.60;1.50;;;18.90;63.00;;;;;;5453016;26;20721;-67
2024/04/13 09:32:59;;;;;;;1.83;1.73;;;18.90;62.90;;;;;;5452578;26;20778;-68
2024/04/13 09:35:25;;;;;;;2.28;1.75;;;18.90;62.90;;;;;;5452136;26;20216;-69
2024/04/13 09:37:55;;;;;;;2.17;1.77;;;18.90;62.90;;;;;;5452332;26;20254;-68
2024/04/13 09:40:21;;;;;;;2.17;1.80;;;18.90;62.90;;;;;;5452893;26;20223;-68
2024/04/13 09:42:48;;;;;;;2.00;1.80;;;18.90;62.90;;;;;;5451503;26;20215;-68
2024/04/13 09:45:13;;;;;;;2.30;1.90;;;19.00;62.90;;;;;;5452717;26;20258;-67
2024/04/13 09:47:39;;;;;;;1.75;1.65;;;19.00;62.90;;;;;;5450951;26;20223;-68
2024/04/13 09:50:05;;;;;;;1.80;1.60;;;18.90;62.80;;;;;;5451397;26;20261;-68
2024/04/13 09:52:34;;;;;;;1.60;1.50;;;19.00;62.90;;;;;;5452720;26;20220;-69
2024/04/13 09:55:00;;;;;;;1.80;1.70;;;19.00;62.80;;;;;;5452319;26;20279;-68
2024/04/13 09:57:25;;;;;;;2.28;2.08;;;19.10;62.80;;;;;;5451793;26;20223;-67
2024/04/13 09:59:51;;;;;;;1.77;1.65;;;19.10;62.80;;;;;;5452055;26;20324;-67
2024/04/13 10:02:18;;;;;;;2.05;1.85;;;19.10;62.70;;;;;;5452613;26;20266;-67
2024/04/13 10:04:44;;;;;;;2.45;1.83;;;19.10;62.70;;;;;;5451270;26;20223;-68
2024/04/13 10:07:10;;;;;;;2.35;2.10;;;19.10;62.60;;;;;;5452521;26;20220;-67
2024/04/13 10:09:37;;;;;;;2.83;1.92;;;19.20;62.70;;;;;;5452501;26;20227;-68
2024/04/13 10:12:03;;;;;;;2.72;2.05;;;19.20;62.70;;;;;;5449415;26;20227;-68
2024/04/13 10:14:28;;;;;;;2.00;1.90;;;19.30;62.70;;;;;;5450826;26;20790;-68
2024/04/13 10:16:55;;;;;;;2.08;1.75;;;19.30;62.70;;;;;;5429186;26;20670;-69
2024/04/13 10:19:21;;;;;;;2.35;1.95;;;19.30;62.70;;;;;;5415414;26;20224;-68
2024/04/13 10:22:00;;;;;;;2.22;1.60;;;19.30;62.70;;;;;;5415906;26;20224;-68
2024/04/13 10:24:28;;;;;;;2.17;1.88;;;19.30;62.70;;;;;;5415374;26;20220;-67
2024/04/13 10:27:04;;;;;;;2.05;1.85;;;19.30;62.60;;;;;;5415853;26;20221;-67
2024/04/13 10:29:37;;;;;;;2.10;2.00;;;19.30;62.70;;;;;;5416166;26;20258;-67
2024/04/13 10:32:22;;;;;;;2.78;2.08;;;19.40;62.70;;;;;;5385109;26;20334;-68
2024/04/13 10:34:51;;;;;;;2.30;2.20;;;19.40;62.70;;;;;;5415782;26;20216;-69
2024/04/13 10:37:23;;;;;;;2.58;2.20;;;19.40;62.70;;;;;;5416021;26;20374;-69
2024/04/13 10:40:07;;;;;;;2.33;2.13;;;19.40;62.60;;;;;;5414802;26;20225;-69
2024/04/13 10:42:42;;;;;;;2.90;2.35;;;19.50;62.50;;;;;;5415947;26;20757;-68
2024/04/13 10:45:18;;;;;;;2.75;2.00;;;19.50;62.60;;;;;;5415854;26;20224;-68
2024/04/13 10:47:44;;;;;;;1.98;1.77;;;19.50;62.60;;;;;;5415444;26;20224;-68
2024/04/13 10:50:10;;;;;;;2.40;1.92;;;19.50;62.60;;;;;;5415849;26;20220;-69
2024/04/13 10:52:36;;;;;;;2.47;2.28;;;19.50;62.60;;;;;;5414948;26;20275;-70
2024/04/13 10:55:01;;;;;;;2.47;2.10;;;19.50;62.60;;;;;;5415303;26;20680;-68
2024/04/13 10:57:27;;;;;;;1.98;1.88;;;19.50;62.60;;;;;;5415692;26;20258;-67
2024/04/13 10:59:53;;;;;;;2.53;2.33;;;19.50;62.60;;;;;;5414412;26;20284;-68
2024/04/13 11:02:18;;;;;;;3.10;2.38;;;19.50;62.60;;;;;;5415626;26;20384;-68
2024/04/13 11:04:44;;;;;;;2.63;2.10;;;19.50;62.60;;;;;;5415191;26;20220;-67
2024/04/13 11:07:12;;;;;;;2.17;2.05;;;19.50;62.60;;;;;;5414679;26;20225;-67
2024/04/13 11:09:38;;;;;;;3.22;2.22;;;19.50;62.60;;;;;;5415516;26;20694;-67
2024/04/13 11:12:07;;;;;;;3.72;2.00;;;19.60;62.60;;;;;;5414962;26;20385;-68
2024/04/13 11:14:32;;;;;;;2.30;2.10;;;19.60;62.50;;;;;;5414614;26;20220;-68
2024/04/13 11:16:58;;;;;;;2.40;2.20;;;19.60;62.50;;;;;;5414738;26;20245;-69
2024/04/13 11:19:23;;;;;;;2.40;2.20;;;19.60;62.50;;;;;;5415087;26;20220;-68
2024/04/13 11:21:49;;;;;;;2.40;2.10;;;19.60;62.50;;;;;;5414014;26;20221;-68
2024/04/13 11:24:15;;;;;;;2.20;2.00;;;19.60;62.40;;;;;;5384077;26;20585;-68
2024/04/13 11:26:40;;;;;;;2.25;2.05;;;19.70;62.50;;;;;;5414841;26;20232;-68
2024/04/13 11:29:06;;;;;;;2.72;1.95;;;19.70;62.50;;;;;;5417638;26;20228;-68
2024/04/13 11:31:31;;;;;;;2.22;2.03;;;19.70;62.40;;;;;;5387492;26;20270;-68
2024/04/13 11:33:57;;;;;;;5.60;2.30;;;19.80;62.40;;;;;;5387011;26;20284;-68
2024/04/13 11:36:22;;;;;;;2.00;1.85;;;19.80;62.40;;;;;;5417759;26;20224;-69
2024/04/13 11:38:48;;;;;;;2.47;1.90;;;19.80;62.40;;;;;;5418221;26;20220;-68
2024/04/13 11:41:13;;;;;;;2.75;2.55;;;19.80;62.40;;;;;;5418575;26;20232;-69
2024/04/13 11:43:39;;;;;;;4.82;2.25;;;19.80;62.40;;;;;;5386395;26;20298;-68
2024/04/13 11:46:05;;;;;;;2.50;2.30;;;19.80;62.30;;;;;;5418320;26;20260;-69
2024/04/13 11:48:31;;;;;;;2.10;2.00;;;19.80;62.30;;;;;;5386611;26;20220;-69
2024/04/13 11:50:57;;;;;;;3.00;2.22;;;19.80;62.20;;;;;;5418098;26;20385;-69
2024/04/13 11:53:22;;;;;;;2.42;2.15;;;19.90;62.20;;;;;;5418540;26;20221;-69
2024/04/13 11:55:48;;;;;;;2.95;2.10;;;19.80;62.10;;;;;;5417025;26;20792;-68
2024/04/13 11:58:23;;;;;;;2.85;2.40;;;19.80;62.10;;;;;;5418323;26;20302;-67
2024/04/13 12:00:48;;;;;;;2.38;2.17;;;19.90;62.30;;;;;;5417971;26;20258;-68
2024/04/13 12:03:14;;;;;;;2.00;1.90;;;19.80;62.20;;;;;;5417412;26;20232;-68
2024/04/13 12:05:39;;;;;;;2.95;2.25;;;19.90;62.20;;;;;;5417901;26;20217;-68
2024/04/13 12:08:05;;;;;;;2.78;2.10;;;19.90;63.00;;;;;;5418079;26;20216;-68
2024/04/13 12:10:31;;;;;;;2.50;2.30;;;19.90;62.10;;;;;;5417339;26;20489;-68
2024/04/13 12:12:56;;;;;;;3.13;2.33;;;19.90;62.00;;;;;;5417947;26;20224;-68
2024/04/13 12:15:22;;;;;;;2.03;1.92;;;20.00;62.00;;;;;;5418052;26;20228;-69
2024/04/13 12:17:47;;;;;;;3.47;2.05;;;20.10;62.00;;;;;;5416701;26;20236;-69
2024/04/13 12:20:14;;;;;;;2.13;2.03;;;20.10;62.00;;;;;;5418058;26;20321;-68
2024/04/13 12:22:40;;;;;;;2.28;2.08;;;20.00;62.10;;;;;;5417746;26;20687;-68
2024/04/13 12:25:05;;;;;;;2.40;2.20;;;20.00;62.00;;;;;;5417137;26;20254;-67
2024/04/13 12:27:32;;;;;;;2.67;2.25;;;20.00;61.90;;;;;;5418134;26;20652;-67
2024/04/13 12:29:57;;;;;;;2.78;1.98;;;20.10;62.70;;;;;;5386333;26;20232;-67
2024/04/13 12:32:24;;;;;;;2.65;2.10;;;20.10;61.80;;;;;;5417117;26;20259;-68
2024/04/13 12:34:49;;;;;;;2.83;2.20;;;20.10;61.70;;;;;;5417445;26;20738;-68
2024/04/13 12:37:15;;;;;;;2.47;2.22;;;20.10;61.70;;;;;;5417746;26;20213;-69
2024/04/13 12:39:42;;;;;;;2.40;2.20;;;20.20;61.60;;;;;;5415312;26;20233;-69
2024/04/13 12:42:09;;;;;;;2.63;2.17;;;20.20;61.50;;;;;;5417753;26;20224;-68
2024/04/13 12:44:35;;;;;;;1.92;1.70;;;20.30;61.50;;;;;;5417784;26;20629;-68